Austin (LCRA Redbud)'s Hourly Summary for Sunday, April 16, 2017
Hour Temp
(f)
RH
(%)
Solar Rad.
(MJ/m2)
Rainfall
(in)
Wind
(mph)
4/16/2017 12:00 AM 72 77 0 0 2.5
4/16/2017 1:00 AM 72 80 0 0 3.14
4/16/2017 2:00 AM 71 83 0 0 2.77
4/16/2017 3:00 AM 71 84 0 0 2.76
4/16/2017 4:00 AM 71 85 0 0 2.3
4/16/2017 5:00 AM 70 86 0 0 1.6
4/16/2017 6:00 AM 69 90 0 0 0.97
4/16/2017 7:00 AM 70 89 0 0 0.98
4/16/2017 8:00 AM 70 88 0.08 0 1.59
4/16/2017 9:00 AM 71 82 0.57 0 2.88
4/16/2017 10:00 AM 73 78 0.79 0 3.83
4/16/2017 11:00 AM 74 71 1.08 0 4.18
4/16/2017 12:00 PM 77 66 1.46 0 4.74
4/16/2017 1:00 PM 78 62 1.51 0 4.47
4/16/2017 2:00 PM 79 61 1.29 0 2.9
4/16/2017 3:00 PM 81 57 2.05 0 3.42
4/16/2017 4:00 PM 81 56 1.55 0 3.32
4/16/2017 5:00 PM 83 52 1.87 0 3.71
4/16/2017 6:00 PM 83 52 1.06 0 2.74
4/16/2017 7:00 PM 82 55 0.49 0 2.94
4/16/2017 8:00 PM 80 60 0.24 0 3.76
4/16/2017 9:00 PM 77 66 0 0 2.94
4/16/2017 10:00 PM 75 72 0 0 1.42
4/16/2017 11:00 PM 74 74 0 0 2.21
Data Summary 75 71 14.04 0.00 2.84